Darstellungsparameter: Aktuell verwendete Einstellungen:
Skalierung der Graphiken ... ?
xyx+y,   Skalierungsfaktor:      Skalierung: Modus: x, Faktor: 1
Darstellungszeitraum ... ?
Vom - - bis: - -   Zeitraum: 24.08.2016 - 24.08.2016
Min/Max/Avg-Anzeige ... ?
Zeige MMA aktuell
Zeige MMA Monat
Zeige MMA alles
Zeige --A aktuell
Zeige --A Monat
Zeige --A alles
Keine MMA-Anzeige
MMA:
Average (ber die Originaldaten)
MMA-Basis: 24.08.2016 - 24.08.2016
Quicknavigation für Darstellung... ?
Tage:      1T, 2T, 3T, 5T -1T -2T -3T -5T +1T +2T +3T +5T
Wochen: 1W, 2W, 3W -1W -2W -3W +1W +2W +3W
Monate: 1M, 3M, 6M -1M -3M -6M +1M +3M +6M
Jahre:    1J, 3J, 5J, 10J -1J -3J -5J -10J +1J +3J +5J +10J
Nutze für die Darstellung ... ?
Originaldaten oder Mittelwerte auf ...
Stundenbasis Tagesbasis Wochenbasis
Monatsbasis Jahresbasis      Datenbasis: Original-Daten
Darstellen als:
Statistik (Auto) Statistik J:M      Darstellung:
Zur Graphik,    zurück zur Übersicht aller Sensoren.
 
Tabellarische Datenbersicht: ?
 
Sensor: Nr:Datum:Temp:Abs-Feuchte:Windchill:Wind:
Aussen-T/F 1 24-08-2016 00:00:00 16.5 C 11.8 g/m*3 16.5 C 0 km/h
2 24-08-2016 00:05:00 16.4 C 11.86 g/m*3 16.4 C 0 km/h
3 24-08-2016 00:10:00 16.3 C 11.79 g/m*3 16.3 C 0 km/h
4 24-08-2016 00:15:00 16.3 C 11.79 g/m*3 16.3 C 0 km/h
5 24-08-2016 00:20:00 16.2 C 11.72 g/m*3 16.2 C 0 km/h
6 24-08-2016 00:25:00 16.2 C 11.72 g/m*3 16.2 C 0 km/h
7 24-08-2016 00:30:00 16.1 C 11.79 g/m*3 16.1 C 0 km/h
8 24-08-2016 00:35:00 16.1 C 11.79 g/m*3 16.1 C 0 km/h
9 24-08-2016 00:40:00 16 C 11.72 g/m*3 16 C 0 km/h
10 24-08-2016 00:45:00 15.9 C 11.65 g/m*3 15.9 C 0 km/h
11 24-08-2016 00:50:00 15.8 C 11.58 g/m*3 15.8 C 0 km/h
12 24-08-2016 00:55:00 15.7 C 11.51 g/m*3 15.7 C 0 km/h
13 24-08-2016 01:00:00 15.6 C 11.57 g/m*3 15.6 C 0 km/h
14 24-08-2016 01:05:00 15.6 C 11.57 g/m*3 15.6 C 0 km/h
15 24-08-2016 01:10:00 15.6 C 11.57 g/m*3 15.6 C 0 km/h
16 24-08-2016 01:15:00 15.5 C 11.5 g/m*3 15.5 C 0 km/h
17 24-08-2016 01:20:00 15.4 C 11.43 g/m*3 15.4 C 0 km/h
18 24-08-2016 01:25:00 15.3 C 11.36 g/m*3 15.3 C 0 km/h
19 24-08-2016 01:30:00 15.2 C 11.42 g/m*3 15.2 C 0 km/h
20 24-08-2016 01:35:00 15.1 C 11.35 g/m*3 15.1 C 0 km/h
21 24-08-2016 01:40:00 15.1 C 11.35 g/m*3 15.1 C 0 km/h
22 24-08-2016 01:45:00 14.9 C 11.22 g/m*3 14.9 C 0 km/h
23 24-08-2016 01:50:00 14.9 C 11.22 g/m*3 14.9 C 0 km/h
24 24-08-2016 01:55:00 14.8 C 11.15 g/m*3 14.8 C 0 km/h
25 24-08-2016 02:00:00 14.8 C 11.27 g/m*3 14.8 C 0 km/h
Sensor: Nr:Datum:Temp:Abs-Feuchte:Windchill:Wind:
Aussen-T/F 26 24-08-2016 02:05:00 14.8 C 11.27 g/m*3 14.8 C 0 km/h
27 24-08-2016 02:10:00 14.8 C 11.27 g/m*3 14.8 C 0 km/h
28 24-08-2016 02:15:00 14.7 C 11.21 g/m*3 14.7 C 0 km/h
29 24-08-2016 02:20:00 14.7 C 11.21 g/m*3 14.7 C 0 km/h
30 24-08-2016 02:25:00 14.7 C 11.21 g/m*3 14.7 C 0 km/h
31 24-08-2016 02:30:00 14.7 C 11.21 g/m*3 14.7 C 0 km/h
32 24-08-2016 02:35:00 14.6 C 11.14 g/m*3 14.6 C 0 km/h
33 24-08-2016 02:40:00 14.6 C 11.14 g/m*3 14.6 C 0 km/h
34 24-08-2016 02:45:00 14.5 C 11.07 g/m*3 14.5 C 0 km/h
35 24-08-2016 02:50:00 14.4 C 11 g/m*3 14.4 C 0 km/h
36 24-08-2016 02:55:00 14.3 C 11.06 g/m*3 14.3 C 0 km/h
37 24-08-2016 03:00:00 14.3 C 10.93 g/m*3 14.3 C 0 km/h
38 24-08-2016 03:05:00 14.2 C 10.99 g/m*3 14.2 C 0 km/h
39 24-08-2016 03:10:00 14.2 C 10.99 g/m*3 14.2 C 0 km/h
40 24-08-2016 03:15:00 14.1 C 10.92 g/m*3 14.1 C 0 km/h
41 24-08-2016 03:20:00 14 C 10.86 g/m*3 14 C 0 km/h
42 24-08-2016 03:25:00 13.9 C 10.79 g/m*3 13.9 C 0 km/h
43 24-08-2016 03:30:00 13.9 C 10.79 g/m*3 13.9 C 0 km/h
44 24-08-2016 03:35:00 13.8 C 10.84 g/m*3 13.8 C 0 km/h
45 24-08-2016 03:40:00 13.8 C 10.84 g/m*3 13.8 C 0 km/h
46 24-08-2016 03:45:00 13.7 C 10.78 g/m*3 13.7 C 0 km/h
47 24-08-2016 03:50:00 13.7 C 10.78 g/m*3 13.7 C 0 km/h
48 24-08-2016 03:55:00 13.7 C 10.78 g/m*3 13.7 C 0 km/h
49 24-08-2016 04:00:00 13.6 C 10.71 g/m*3 13.6 C 0 km/h
50 24-08-2016 04:05:00 13.4 C 10.58 g/m*3 13.4 C 0 km/h
Sensor: Nr:Datum:Temp:Abs-Feuchte:Windchill:Wind:
Aussen-T/F 51 24-08-2016 04:10:00 13.4 C 10.58 g/m*3 13.4 C 0 km/h
52 24-08-2016 04:15:00 13.4 C 10.69 g/m*3 13.4 C 0 km/h
53 24-08-2016 04:20:00 13.3 C 10.63 g/m*3 13.3 C 0 km/h
54 24-08-2016 04:25:00 13.3 C 10.63 g/m*3 13.3 C 0 km/h
55 24-08-2016 04:30:00 13.3 C 10.63 g/m*3 13.3 C 0 km/h
56 24-08-2016 04:35:00 13.3 C 10.63 g/m*3 13.3 C 0 km/h
57 24-08-2016 04:40:00 13.3 C 10.63 g/m*3 13.3 C 0 km/h
58 24-08-2016 04:45:00 13.2 C 10.56 g/m*3 13.2 C 0 km/h
59 24-08-2016 04:50:00 13.2 C 10.56 g/m*3 13.2 C 0 km/h
60 24-08-2016 04:55:00 13.2 C 10.68 g/m*3 13.2 C 0 km/h
61 24-08-2016 05:00:00 13.1 C 10.61 g/m*3 13.1 C 0 km/h
62 24-08-2016 05:05:00 13.1 C 10.61 g/m*3 13.1 C 0 km/h
63 24-08-2016 05:10:00 13.1 C 10.61 g/m*3 13.1 C 0 km/h
64 24-08-2016 05:15:00 13.1 C 10.61 g/m*3 13.1 C 0 km/h
65 24-08-2016 05:20:00 13.1 C 10.61 g/m*3 13.1 C 0 km/h
66 24-08-2016 05:25:00 13 C 10.55 g/m*3 13 C 0 km/h
67 24-08-2016 05:30:00 13 C 10.55 g/m*3 13 C 0 km/h
68 24-08-2016 05:35:00 13.1 C 10.73 g/m*3 13.1 C 0 km/h
69 24-08-2016 05:40:00 13 C 10.55 g/m*3 13 C 0 km/h
70 24-08-2016 05:45:00 13.1 C 10.73 g/m*3 13.1 C 0 km/h
71 24-08-2016 05:50:00 13 C 10.66 g/m*3 13 C 0 km/h
72 24-08-2016 05:55:00 12.9 C 10.48 g/m*3 12.9 C 0 km/h
73 24-08-2016 06:00:00 12.9 C 10.48 g/m*3 12.9 C 0 km/h
74 24-08-2016 06:05:00 12.8 C 10.42 g/m*3 12.8 C 0 km/h
75 24-08-2016 06:10:00 12.8 C 10.42 g/m*3 12.8 C 0 km/h
Sensor: Nr:Datum:Temp:Abs-Feuchte:Windchill:Wind:
Aussen-T/F 76 24-08-2016 06:15:00 12.8 C 10.42 g/m*3 12.8 C 0 km/h
77 24-08-2016 06:20:00 12.8 C 10.42 g/m*3 12.8 C 0 km/h
78 24-08-2016 06:25:00 12.7 C 10.46 g/m*3 12.7 C 0 km/h
79 24-08-2016 06:30:00 12.8 C 10.53 g/m*3 12.8 C 0 km/h
80 24-08-2016 06:35:00 12.8 C 10.53 g/m*3 12.8 C 0 km/h
81 24-08-2016 06:40:00 12.7 C 10.46 g/m*3 12.7 C 0 km/h
82 24-08-2016 06:45:00 12.7 C 10.46 g/m*3 12.7 C 0 km/h
83 24-08-2016 06:50:00 12.7 C 10.46 g/m*3 12.7 C 0 km/h
84 24-08-2016 06:55:00 12.7 C 10.46 g/m*3 12.7 C 0 km/h
85 24-08-2016 07:00:00 12.6 C 10.4 g/m*3 12.6 C 0 km/h
86 24-08-2016 07:05:00 12.7 C 10.46 g/m*3 12.7 C 0 km/h
87 24-08-2016 07:10:00 12.7 C 10.46 g/m*3 12.7 C 0 km/h
88 24-08-2016 07:15:00 12.7 C 10.46 g/m*3 12.7 C 0 km/h
89 24-08-2016 07:20:00 12.7 C 10.46 g/m*3 12.7 C 0 km/h
90 24-08-2016 07:25:00 12.7 C 10.58 g/m*3 12.7 C 0 km/h
91 24-08-2016 07:30:00 12.8 C 10.64 g/m*3 12.8 C 0 km/h
92 24-08-2016 07:35:00 12.8 C 10.64 g/m*3 12.8 C 0 km/h
93 24-08-2016 07:40:00 12.8 C 10.64 g/m*3 12.8 C 0 km/h
94 24-08-2016 07:45:00 12.9 C 10.71 g/m*3 12.9 C 0 km/h
95 24-08-2016 07:50:00 12.9 C 10.71 g/m*3 12.9 C 0 km/h
96 24-08-2016 07:55:00 12.9 C 10.71 g/m*3 12.9 C 0 km/h
97 24-08-2016 08:00:00 13 C 10.77 g/m*3 13 C 0 km/h
98 24-08-2016 08:05:00 13.1 C 10.84 g/m*3 13.1 C 0 km/h
99 24-08-2016 08:10:00 13.1 C 10.84 g/m*3 13.1 C 0 km/h
100 24-08-2016 08:15:00 13.2 C 10.91 g/m*3 13.2 C 0 km/h
Sensor: Nr:Datum:Temp:Abs-Feuchte:Windchill:Wind:
Aussen-T/F 101 24-08-2016 08:20:00 13.2 C 10.91 g/m*3 13.2 C 0 km/h
102 24-08-2016 08:25:00 13.3 C 10.98 g/m*3 13.3 C 0 km/h
103 24-08-2016 08:30:00 13.4 C 11.04 g/m*3 13.4 C 0 km/h
104 24-08-2016 08:35:00 13.5 C 11.11 g/m*3 13.5 C 0 km/h
105 24-08-2016 08:40:00 13.6 C 11.3 g/m*3 13.6 C 0 km/h
106 24-08-2016 08:45:00 13.7 C 11.37 g/m*3 13.7 C 0 km/h
107 24-08-2016 08:50:00 13.8 C 11.32 g/m*3 13.8 C 0 km/h
108 24-08-2016 08:55:00 13.8 C 11.32 g/m*3 13.8 C 0 km/h
109 24-08-2016 09:00:00 13.9 C 11.39 g/m*3 13.9 C 0 km/h
110 24-08-2016 09:05:00 14 C 11.46 g/m*3 14 C 0 km/h
111 24-08-2016 09:10:00 14.1 C 11.65 g/m*3 14.1 C 0 km/h
112 24-08-2016 09:15:00 14.2 C 11.6 g/m*3 14.2 C 0 km/h
113 24-08-2016 09:20:00 14.3 C 11.79 g/m*3 14.3 C 0 km/h
114 24-08-2016 09:25:00 14.4 C 11.87 g/m*3 14.4 C 0 km/h
115 24-08-2016 09:30:00 14.6 C 12.01 g/m*3 14.6 C 0 km/h
116 24-08-2016 09:35:00 14.8 C 12.16 g/m*3 14.8 C 0 km/h
117 24-08-2016 09:40:00 14.9 C 12.24 g/m*3 14.9 C 0 km/h
118 24-08-2016 09:45:00 15.1 C 12.39 g/m*3 15.1 C 0 km/h
119 24-08-2016 09:50:00 15.2 C 12.46 g/m*3 15.2 C 0 km/h
120 24-08-2016 09:55:00 15.3 C 12.54 g/m*3 15.3 C 0 km/h
121 24-08-2016 10:00:00 15.5 C 12.69 g/m*3 15.5 C 0 km/h
122 24-08-2016 10:05:00 15.7 C 12.84 g/m*3 15.7 C 0 km/h
123 24-08-2016 10:10:00 15.8 C 12.92 g/m*3 15.8 C 0 km/h
124 24-08-2016 10:15:00 16 C 12.94 g/m*3 16 C 0 km/h
125 24-08-2016 10:20:00 16.2 C 13.1 g/m*3 16.2 C 0 km/h
Sensor: Nr:Datum:Temp:Abs-Feuchte:Windchill:Wind:
Aussen-T/F 126 24-08-2016 10:25:00 16.4 C 13.26 g/m*3 16.4 C 0 km/h
127 24-08-2016 10:30:00 16.7 C 13.5 g/m*3 16.7 C 0 km/h
128 24-08-2016 10:35:00 17 C 13.6 g/m*3 17 C 0 km/h
129 24-08-2016 10:40:00 17.2 C 13.77 g/m*3 17.2 C 0 km/h
130 24-08-2016 10:45:00 17.6 C 13.95 g/m*3 17.6 C 0 km/h
131 24-08-2016 10:50:00 18 C 14.28 g/m*3 18 C 0 km/h
132 24-08-2016 10:55:00 18.4 C 14.47 g/m*3 18.4 C 0 km/h
133 24-08-2016 11:00:00 18.7 C 14.57 g/m*3 18.7 C 0 km/h
134 24-08-2016 11:05:00 19.1 C 14.92 g/m*3 19.1 C 0 km/h
135 24-08-2016 11:10:00 19.3 C 14.93 g/m*3 19.3 C 0 km/h
136 24-08-2016 11:15:00 19.7 C 14.94 g/m*3 19.7 C 0 km/h
137 24-08-2016 11:20:00 20 C 15.21 g/m*3 20 C 0 km/h
138 24-08-2016 11:25:00 20.2 C 15.21 g/m*3 20.2 C 1.6 km/h
139 24-08-2016 11:30:00 20.5 C 15.3 g/m*3 20.5 C 0 km/h
140 24-08-2016 11:35:00 20.8 C 15.57 g/m*3 20.8 C 0 km/h
141 24-08-2016 11:40:00 21 C 15.75 g/m*3 21 C 0 km/h
142 24-08-2016 11:45:00 21.2 C 15.38 g/m*3 21.2 C 0 km/h
143 24-08-2016 11:50:00 21.6 C 15.93 g/m*3 21.6 C 0 km/h
144 24-08-2016 11:55:00 21.9 C 15.82 g/m*3 21.9 C 0 km/h
145 24-08-2016 12:00:00 22.3 C 16.19 g/m*3 22.3 C 1.6 km/h
146 24-08-2016 12:05:00 22.7 C 15.96 g/m*3 22.7 C 3.2 km/h
147 24-08-2016 12:10:00 23.2 C 15.8 g/m*3 23.2 C 6.4 km/h
148 24-08-2016 12:15:00 23.6 C 15.74 g/m*3 23.6 C 4.8 km/h
149 24-08-2016 12:20:00 23.8 C 14.63 g/m*3 23.8 C 4.8 km/h
150 24-08-2016 12:25:00 24.2 C 15.4 g/m*3 24.2 C 3.2 km/h
Sensor: Nr:Datum:Temp:Abs-Feuchte:Windchill:Wind:
Aussen-T/F 151 24-08-2016 12:30:00 24.4 C 15.13 g/m*3 24.4 C 6.4 km/h
152 24-08-2016 12:35:00 24.6 C 14.85 g/m*3 24.6 C 8.1 km/h
153 24-08-2016 12:40:00 24.8 C 15.02 g/m*3 24.8 C 8.1 km/h
154 24-08-2016 12:45:00 25.1 C 14.35 g/m*3 25.1 C 4.8 km/h
155 24-08-2016 12:50:00 25.4 C 16.01 g/m*3 25.4 C 4.8 km/h
156 24-08-2016 12:55:00 25.6 C 15.95 g/m*3 25.6 C 1.6 km/h
157 24-08-2016 13:00:00 25.6 C 16.19 g/m*3 25.6 C 1.6 km/h
158 24-08-2016 13:05:00 25.4 C 14.6 g/m*3 25.4 C 9.7 km/h
159 24-08-2016 13:10:00 25.5 C 14.44 g/m*3 25.5 C 8.1 km/h
160 24-08-2016 13:15:00 25.7 C 15.08 g/m*3 25.7 C 6.4 km/h
161 24-08-2016 13:20:00 25.8 C 14.45 g/m*3 25.8 C 6.4 km/h
162 24-08-2016 13:25:00 25.9 C 15.74 g/m*3 25.9 C 4.8 km/h
163 24-08-2016 13:30:00 26.1 C 16.65 g/m*3 26.1 C 4.8 km/h
164 24-08-2016 13:35:00 26.1 C 14.93 g/m*3 26.1 C 8.1 km/h
165 24-08-2016 13:40:00 26.4 C 13.69 g/m*3 26.4 C 6.4 km/h
166 24-08-2016 13:45:00 26.6 C 14.35 g/m*3 26.6 C 3.2 km/h
167 24-08-2016 13:50:00 26.8 C 14.25 g/m*3 26.8 C 6.4 km/h
168 24-08-2016 13:55:00 26.9 C 14.08 g/m*3 26.9 C 8.1 km/h
169 24-08-2016 14:00:00 27.1 C 14.23 g/m*3 27.1 C 6.4 km/h
170 24-08-2016 14:05:00 27.2 C 14.83 g/m*3 27.2 C 4.8 km/h
171 24-08-2016 14:10:00 27.3 C 14.39 g/m*3 27.3 C 4.8 km/h
172 24-08-2016 14:15:00 27.3 C 13.61 g/m*3 27.3 C 8.1 km/h
173 24-08-2016 14:20:00 27.6 C 14.1 g/m*3 27.6 C 4.8 km/h
174 24-08-2016 14:25:00 27.8 C 14.52 g/m*3 27.8 C 4.8 km/h
175 24-08-2016 14:30:00 27.9 C 14.6 g/m*3 27.9 C 4.8 km/h
Sensor: Nr:Datum:Temp:Abs-Feuchte:Windchill:Wind:
Aussen-T/F 176 24-08-2016 14:35:00 28.1 C 13.67 g/m*3 28.1 C 6.4 km/h
177 24-08-2016 14:40:00 28.3 C 14.1 g/m*3 28.3 C 6.4 km/h
178 24-08-2016 14:45:00 28.3 C 13.82 g/m*3 28.3 C 9.7 km/h
179 24-08-2016 14:50:00 28.3 C 14.38 g/m*3 28.3 C 6.4 km/h
180 24-08-2016 14:55:00 28.6 C 14.61 g/m*3 28.6 C 11.3 km/h
181 24-08-2016 15:00:00 28.7 C 14.98 g/m*3 28.7 C 8.1 km/h
182 24-08-2016 15:05:00 28.6 C 16.02 g/m*3 28.6 C 8.1 km/h
183 24-08-2016 15:10:00 28.6 C 13.77 g/m*3 28.6 C 9.7 km/h
184 24-08-2016 15:15:00 28.9 C 16 g/m*3 28.9 C 6.4 km/h
185 24-08-2016 15:20:00 28.8 C 14.49 g/m*3 28.8 C 6.4 km/h
186 24-08-2016 15:25:00 28.8 C 14.21 g/m*3 28.8 C 12.9 km/h
187 24-08-2016 15:30:00 28.9 C 16 g/m*3 28.9 C 1.6 km/h
188 24-08-2016 15:35:00 28.9 C 14 g/m*3 28.9 C 11.3 km/h
189 24-08-2016 15:40:00 29.3 C 14.01 g/m*3 29.3 C 8.1 km/h
190 24-08-2016 15:45:00 29.5 C 14.76 g/m*3 29.5 C 6.4 km/h
191 24-08-2016 15:50:00 29.7 C 14.02 g/m*3 29.7 C 6.4 km/h
192 24-08-2016 15:55:00 29.8 C 15 g/m*3 29.8 C 8.1 km/h
193 24-08-2016 16:00:00 29.8 C 15 g/m*3 29.8 C 4.8 km/h
194 24-08-2016 16:05:00 29.9 C 14.78 g/m*3 29.9 C 4.8 km/h
195 24-08-2016 16:10:00 30.2 C 14.41 g/m*3 30.2 C 4.8 km/h
196 24-08-2016 16:15:00 30.2 C 15.02 g/m*3 30.2 C 6.4 km/h
197 24-08-2016 16:20:00 30.4 C 14.56 g/m*3 30.4 C 4.8 km/h
198 24-08-2016 16:25:00 30.6 C 14.72 g/m*3 30.6 C 6.4 km/h
199 24-08-2016 16:30:00 30.8 C 15.83 g/m*3 30.8 C 6.4 km/h
200 24-08-2016 16:35:00 31.3 C 15.94 g/m*3 31.3 C 3.2 km/h
Sensor: Nr:Datum:Temp:Abs-Feuchte:Windchill:Wind:
Aussen-T/F 201 24-08-2016 16:40:00 31.5 C 15.45 g/m*3 31.5 C 1.6 km/h
202 24-08-2016 16:45:00 31.6 C 16.52 g/m*3 31.6 C 3.2 km/h
203 24-08-2016 16:50:00 32 C 16.54 g/m*3 32 C 6.4 km/h
204 24-08-2016 16:55:00 32.3 C 15.44 g/m*3 32.3 C 6.4 km/h
205 24-08-2016 17:00:00 32.4 C 15.52 g/m*3 32.4 C 1.6 km/h
206 24-08-2016 17:05:00 32.6 C 17.77 g/m*3 32.6 C 4.8 km/h
207 24-08-2016 17:10:00 32.7 C 15.07 g/m*3 32.7 C 9.7 km/h
208 24-08-2016 17:15:00 32.8 C 15.15 g/m*3 32.8 C 4.8 km/h
209 24-08-2016 17:20:00 33 C 16.02 g/m*3 33 C 4.8 km/h
210 24-08-2016 17:25:00 33.1 C 15.03 g/m*3 33.1 C 4.8 km/h
211 24-08-2016 17:30:00 33.2 C 17.27 g/m*3 33.2 C 1.6 km/h
212 24-08-2016 17:35:00 33 C 16.02 g/m*3 33 C 1.6 km/h
213 24-08-2016 17:40:00 32.9 C 16.29 g/m*3 32.9 C 4.8 km/h
214 24-08-2016 17:45:00 32.9 C 16.29 g/m*3 32.9 C 6.4 km/h
215 24-08-2016 17:50:00 32.9 C 14.87 g/m*3 32.9 C 4.8 km/h
216 24-08-2016 17:55:00 33 C 16.02 g/m*3 33 C 6.4 km/h
217 24-08-2016 18:00:00 33.2 C 17.63 g/m*3 33.2 C 1.6 km/h
218 24-08-2016 18:05:00 33.1 C 16.46 g/m*3 33.1 C 1.6 km/h
219 24-08-2016 18:10:00 32.8 C 17.61 g/m*3 32.8 C 1.6 km/h
220 24-08-2016 18:15:00 32.5 C 17.33 g/m*3 32.5 C 1.6 km/h
221 24-08-2016 18:20:00 31.7 C 17.28 g/m*3 31.7 C 1.6 km/h
222 24-08-2016 18:25:00 31 C 16.96 g/m*3 31 C 1.6 km/h
223 24-08-2016 18:30:00 30.4 C 16.73 g/m*3 30.4 C 0 km/h
224 24-08-2016 18:35:00 30.2 C 15.94 g/m*3 30.2 C 3.2 km/h
225 24-08-2016 18:40:00 30.2 C 16.86 g/m*3 30.2 C 1.6 km/h
Sensor: Nr:Datum:Temp:Abs-Feuchte:Windchill:Wind:
Aussen-T/F 226 24-08-2016 18:45:00 29.9 C 16.89 g/m*3 29.9 C 1.6 km/h
227 24-08-2016 18:50:00 29.7 C 16.71 g/m*3 29.7 C 1.6 km/h
228 24-08-2016 18:55:00 29.3 C 16.06 g/m*3 29.3 C 3.2 km/h
229 24-08-2016 19:00:00 29.4 C 16.73 g/m*3 29.4 C 4.8 km/h
230 24-08-2016 19:05:00 29.3 C 16.64 g/m*3 29.3 C 1.6 km/h
231 24-08-2016 19:10:00 29.1 C 16.75 g/m*3 29.1 C 1.6 km/h
232 24-08-2016 19:15:00 28.7 C 16.67 g/m*3 28.7 C 1.6 km/h
233 24-08-2016 19:20:00 28.3 C 16.31 g/m*3 28.3 C 1.6 km/h
234 24-08-2016 19:25:00 27.9 C 16.5 g/m*3 27.9 C 1.6 km/h
235 24-08-2016 19:30:00 27.6 C 16.49 g/m*3 27.6 C 1.6 km/h
236 24-08-2016 19:35:00 27.3 C 16.22 g/m*3 27.3 C 1.6 km/h
237 24-08-2016 19:40:00 26.9 C 16.12 g/m*3 26.9 C 3.2 km/h
238 24-08-2016 19:45:00 26.6 C 16.11 g/m*3 26.6 C 1.6 km/h
239 24-08-2016 19:50:00 26.3 C 16.09 g/m*3 26.3 C 1.6 km/h
240 24-08-2016 19:55:00 26.1 C 16.16 g/m*3 26.1 C 1.6 km/h
241 24-08-2016 20:00:00 25.8 C 16.13 g/m*3 25.8 C 1.6 km/h
242 24-08-2016 20:05:00 25.6 C 15.95 g/m*3 25.6 C 1.6 km/h
243 24-08-2016 20:10:00 25.3 C 15.92 g/m*3 25.3 C 1.6 km/h
244 24-08-2016 20:15:00 25 C 15.88 g/m*3 25 C 1.6 km/h
245 24-08-2016 20:20:00 24.7 C 15.84 g/m*3 24.7 C 1.6 km/h
246 24-08-2016 20:25:00 24.3 C 15.49 g/m*3 24.3 C 1.6 km/h
247 24-08-2016 20:30:00 24.1 C 15.53 g/m*3 24.1 C 1.6 km/h
248 24-08-2016 20:35:00 23.8 C 15.49 g/m*3 23.8 C 0 km/h
249 24-08-2016 20:40:00 23.6 C 15.53 g/m*3 23.6 C 0 km/h
250 24-08-2016 20:45:00 23.4 C 15.35 g/m*3 23.4 C 0 km/h
Sensor: Nr:Datum:Temp:Abs-Feuchte:Windchill:Wind:
Aussen-T/F 251 24-08-2016 20:50:00 23.2 C 15.38 g/m*3 23.2 C 0 km/h
252 24-08-2016 20:55:00 23.1 C 15.5 g/m*3 23.1 C 0 km/h
253 24-08-2016 21:00:00 22.9 C 15.33 g/m*3 22.9 C 0 km/h
254 24-08-2016 21:05:00 22.7 C 15.15 g/m*3 22.7 C 0 km/h
255 24-08-2016 21:10:00 22.6 C 15.27 g/m*3 22.6 C 0 km/h
256 24-08-2016 21:15:00 22.4 C 15.29 g/m*3 22.4 C 0 km/h
257 24-08-2016 21:20:00 22.2 C 15.12 g/m*3 22.2 C 0 km/h
258 24-08-2016 21:25:00 22.1 C 15.23 g/m*3 22.1 C 0 km/h
259 24-08-2016 21:30:00 22 C 15.14 g/m*3 22 C 0 km/h
260 24-08-2016 21:35:00 21.9 C 15.24 g/m*3 21.9 C 0 km/h
261 24-08-2016 21:40:00 21.8 C 15.16 g/m*3 21.8 C 0 km/h
262 24-08-2016 21:45:00 21.7 C 15.26 g/m*3 21.7 C 0 km/h
263 24-08-2016 21:50:00 21.5 C 15.09 g/m*3 21.5 C 0 km/h
264 24-08-2016 21:55:00 21.3 C 15.1 g/m*3 21.3 C 0 km/h
265 24-08-2016 22:00:00 21.2 C 15.01 g/m*3 21.2 C 0 km/h
266 24-08-2016 22:05:00 21.1 C 15.11 g/m*3 21.1 C 0 km/h
267 24-08-2016 22:10:00 21 C 15.02 g/m*3 21 C 0 km/h
268 24-08-2016 22:15:00 20.8 C 14.85 g/m*3 20.8 C 0 km/h
269 24-08-2016 22:20:00 20.7 C 14.76 g/m*3 20.7 C 0 km/h
270 24-08-2016 22:25:00 20.6 C 14.86 g/m*3 20.6 C 0 km/h
271 24-08-2016 22:30:00 20.4 C 14.68 g/m*3 20.4 C 0 km/h
272 24-08-2016 22:35:00 20.3 C 14.6 g/m*3 20.3 C 0 km/h
273 24-08-2016 22:40:00 20.2 C 14.69 g/m*3 20.2 C 0 km/h
274 24-08-2016 22:45:00 20.1 C 14.6 g/m*3 20.1 C 0 km/h
275 24-08-2016 22:50:00 20.1 C 14.6 g/m*3 20.1 C 0 km/h
Sensor: Nr:Datum:Temp:Abs-Feuchte:Windchill:Wind:
Aussen-T/F 276 24-08-2016 22:55:00 20.1 C 14.6 g/m*3 20.1 C 0 km/h
277 24-08-2016 23:00:00 20 C 14.52 g/m*3 20 C 0 km/h
278 24-08-2016 23:05:00 19.9 C 14.43 g/m*3 19.9 C 0 km/h
279 24-08-2016 23:10:00 19.8 C 14.35 g/m*3 19.8 C 0 km/h
280 24-08-2016 23:15:00 19.7 C 14.43 g/m*3 19.7 C 0 km/h
281 24-08-2016 23:20:00 19.6 C 14.35 g/m*3 19.6 C 0 km/h
282 24-08-2016 23:25:00 19.5 C 14.27 g/m*3 19.5 C 0 km/h
283 24-08-2016 23:30:00 19.4 C 14.18 g/m*3 19.4 C 0 km/h
284 24-08-2016 23:35:00 19.3 C 14.26 g/m*3 19.3 C 0 km/h
285 24-08-2016 23:40:00 19.3 C 14.26 g/m*3 19.3 C 0 km/h
286 24-08-2016 23:45:00 19.2 C 14.18 g/m*3 19.2 C 0 km/h
287 24-08-2016 23:50:00 19.1 C 14.1 g/m*3 19.1 C 0 km/h
288 24-08-2016 23:55:00 19.1 C 14.26 g/m*3 19.1 C 0 km/h

Legende:
   Min
   Max


Maximal/Minimal-Werte vom 24.08.2016 - 24.08.2016

Sensor Min Max Avg
Temp
(Aussen-T/F)
12.6 °C
24-08-2016  07:00:00
33.2 °C
24-08-2016  17:30:00
20.55 °C
Abs-Feuchte
(Aussen-T/F)
10.4 g/m*3
24-08-2016  07:00:00
17.77 g/m*3
24-08-2016  17:05:00
13.41 g/m*3
Windchill
(Aussen-T/F)
12.6 C
24-08-2016  07:00:00
33.2 C
24-08-2016  17:30:00
20.47 C

Die Daten stammen von einer Davis Vantage Pro 2 Wetter-Station und werden unter Linux mit der Software wview2wettercgi und aufbereitet. Alle Angaben erfolgen ohne Gewähr für ihre Vollständigkeit oder Richtigkeit.
Kontakt: Rainer Krienke krienke@uni-koblenz.de . Meine Webseiten an der Uni Koblenz oder privat.
Version: $Revision: 0.78 $